createdAt,value
2018-02-20T00:00:02.319Z,71.03
2018-02-20T00:02:30.647Z,73.83
2018-02-20T00:04:59.006Z,65.53
2018-02-20T00:07:27.335Z,72.67
2018-02-20T00:09:55.674Z,79.03
2018-02-20T00:12:24.080Z,78.77
2018-02-20T00:14:52.418Z,69.47
2018-02-20T00:17:20.770Z,74.60
2018-02-20T00:19:49.184Z,76.77
2018-02-20T00:22:17.567Z,75.13
2018-02-20T00:24:45.916Z,80.87
2018-02-20T00:27:14.248Z,73.10
2018-02-20T00:29:42.588Z,78.23
2018-02-20T00:32:10.923Z,76.13
2018-02-20T00:34:39.281Z,77.37
2018-02-20T00:37:07.613Z,76.27
2018-02-20T00:39:35.959Z,72.13
2018-02-20T00:42:04.297Z,79.90
2018-02-20T00:44:32.648Z,90.63
2018-02-20T00:47:00.978Z,87.13
2018-02-20T00:49:29.338Z,81.70
2018-02-20T00:51:57.674Z,82.90
2018-02-20T00:54:26.042Z,74.30
2018-02-20T00:56:54.378Z,92.03
2018-02-20T00:59:22.717Z,84.07
2018-02-20T01:01:51.062Z,81.17
2018-02-20T01:04:19.399Z,80.90
2018-02-20T01:06:47.737Z,88.07
2018-02-20T01:09:16.179Z,88.43
2018-02-20T01:11:44.595Z,83.10
2018-02-20T01:14:12.999Z,81.20
2018-02-20T01:16:41.410Z,86.83
2018-02-20T01:19:09.754Z,78.83
2018-02-20T01:21:38.067Z,83.17
2018-02-20T01:24:06.419Z,79.03
2018-02-20T01:26:34.748Z,91.10
2018-02-20T01:29:03.093Z,82.40
2018-02-20T01:31:31.422Z,87.33
2018-02-20T01:33:59.766Z,83.03
2018-02-20T01:36:28.092Z,90.80
2018-02-20T01:38:56.434Z,84.73
2018-02-20T01:41:24.787Z,87.40
2018-02-20T01:43:53.120Z,85.10
2018-02-20T01:46:21.549Z,87.97
2018-02-20T01:48:49.888Z,87.13
2018-02-20T01:51:18.227Z,87.50
2018-02-20T01:53:46.568Z,90.40
2018-02-20T01:56:14.898Z,88.37
2018-02-20T01:58:43.407Z,79.90
2018-02-20T02:01:11.778Z,86.50
2018-02-20T02:03:40.122Z,83.87
2018-02-20T02:06:08.466Z,80.17
2018-02-20T02:08:36.852Z,95.17
2018-02-20T02:11:05.186Z,83.80
2018-02-20T02:13:33.527Z,88.43
2018-02-20T02:16:01.882Z,88.47
2018-02-20T02:18:30.209Z,88.77
2018-02-20T02:20:58.559Z,78.40
2018-02-20T02:23:26.896Z,80.30
2018-02-20T02:25:55.264Z,89.30
2018-02-20T02:28:23.599Z,86.07
2018-02-20T02:30:51.942Z,92.10
2018-02-20T02:33:20.269Z,89.27
2018-02-20T02:35:48.613Z,83.70
2018-02-20T02:38:16.949Z,86.27
2018-02-20T02:40:45.274Z,86.67
2018-02-20T02:43:13.702Z,79.70
2018-02-20T02:45:42.062Z,84.07
2018-02-20T02:48:10.440Z,83.17
2018-02-20T02:50:38.790Z,78.73
2018-02-20T02:53:07.150Z,84.20
2018-02-20T02:55:35.501Z,83.00
2018-02-20T02:58:03.832Z,81.70
2018-02-20T03:00:32.208Z,86.70
2018-02-20T03:03:00.540Z,74.90
2018-02-20T03:05:28.890Z,74.60
2018-02-20T03:07:57.307Z,83.23
2018-02-20T03:10:25.639Z,89.73
2018-02-20T03:12:53.975Z,85.93
2018-02-20T03:15:22.326Z,74.47
2018-02-20T03:17:50.763Z,79.43
2018-02-20T03:20:19.124Z,87.13
2018-02-20T03:22:47.457Z,73.20
2018-02-20T03:25:15.814Z,73.63
2018-02-20T03:27:44.149Z,73.67
2018-02-20T03:30:12.535Z,72.67
2018-02-20T03:32:40.866Z,79.30
2018-02-20T03:35:09.212Z,77.17
2018-02-20T03:37:37.610Z,72.77
2018-02-20T03:40:05.943Z,79.90
2018-02-20T03:42:34.275Z,82.57
2018-02-20T03:45:02.707Z,79.60
2018-02-20T03:47:31.127Z,73.63
2018-02-20T03:49:59.707Z,72.40
2018-02-20T03:52:28.035Z,67.77
2018-02-20T03:54:56.383Z,69.93
2018-02-20T03:57:24.829Z,69.33
2018-02-20T03:59:53.170Z,70.77
2018-02-20T04:02:21.605Z,69.17
2018-02-20T04:04:49.943Z,65.30
2018-02-20T04:07:18.302Z,64.07
2018-02-20T04:09:46.634Z,62.23
2018-02-20T04:12:14.998Z,69.83
2018-02-20T04:14:43.311Z,73.83
2018-02-20T04:17:11.656Z,65.47
2018-02-20T04:19:40.015Z,73.50
2018-02-20T04:22:08.364Z,66.43
2018-02-20T04:24:36.698Z,66.43
2018-02-20T04:27:05.035Z,66.87
2018-02-20T04:29:33.443Z,62.80
2018-02-20T04:32:01.873Z,59.17
2018-02-20T04:34:30.190Z,57.83
2018-02-20T04:36:58.546Z,49.67
2018-02-20T04:39:26.870Z,53.27
2018-02-20T04:41:55.218Z,44.70
2018-02-20T04:44:23.578Z,52.63
2018-02-20T04:46:51.940Z,49.77
2018-02-20T04:49:20.348Z,61.90
2018-02-20T04:51:48.692Z,54.43
2018-02-20T04:54:17.011Z,59.93
2018-02-20T04:56:45.353Z,52.37
2018-02-20T04:59:13.726Z,55.70
2018-02-20T05:01:42.172Z,57.87
2018-02-20T05:04:10.500Z,57.07
2018-02-20T05:06:38.851Z,56.67
2018-02-20T05:09:07.174Z,50.30
2018-02-20T05:11:35.507Z,63.50
2018-02-20T05:14:04.086Z,67.43
2018-02-20T05:16:32.415Z,66.77
2018-02-20T05:19:00.753Z,67.47
2018-02-20T05:21:29.078Z,69.30
2018-02-20T05:23:57.423Z,67.93
2018-02-20T05:26:25.758Z,65.80
2018-02-20T05:28:54.167Z,67.13
2018-02-20T05:31:22.494Z,73.13
2018-02-20T05:33:50.838Z,80.83
2018-02-20T05:36:19.174Z,73.37
2018-02-20T05:38:47.522Z,78.80
2018-02-20T05:41:15.857Z,72.70
2018-02-20T05:43:44.219Z,83.70
2018-02-20T05:46:12.577Z,86.97
2018-02-20T05:48:40.915Z,84.10
2018-02-20T05:51:09.251Z,96.43
2018-02-20T05:53:37.603Z,82.03
2018-02-20T05:56:05.935Z,88.93
2018-02-20T05:58:34.335Z,79.50
2018-02-20T06:01:02.674Z,79.80
2018-02-20T06:03:31.426Z,73.00
2018-02-20T06:05:59.778Z,75.93
2018-02-20T06:08:28.145Z,62.43
2018-02-20T06:10:56.560Z,66.90
2018-02-20T06:13:24.935Z,75.33
2018-02-20T06:15:53.332Z,81.70
2018-02-20T06:18:21.746Z,79.47
2018-02-20T06:20:50.042Z,84.50
2018-02-20T06:23:18.375Z,92.90
2018-02-20T06:25:46.744Z,92.50
2018-02-20T06:28:15.084Z,83.20
2018-02-20T06:30:43.427Z,87.93
2018-02-20T06:33:11.969Z,85.13
2018-02-20T06:35:40.443Z,99.83
2018-02-20T06:38:08.778Z,98.40
2018-02-20T06:40:37.307Z,98.93
2018-02-20T06:43:05.644Z,96.43
2018-02-20T06:45:33.994Z,85.30
2018-02-20T06:48:02.375Z,95.50
2018-02-20T06:50:30.706Z,87.87
2018-02-20T06:52:59.064Z,105.47
2018-02-20T06:55:27.470Z,96.47
2018-02-20T06:57:55.837Z,97.20
2018-02-20T07:00:24.175Z,98.50
2018-02-20T07:02:52.598Z,97.60
2018-02-20T07:05:20.928Z,95.20
2018-02-20T07:07:49.260Z,95.53
2018-02-20T07:10:17.621Z,93.70
2018-02-20T07:12:46.019Z,89.33
2018-02-20T07:15:14.385Z,78.90
2018-02-20T07:17:42.709Z,80.33
2018-02-20T07:20:11.067Z,73.73
2018-02-20T07:22:39.414Z,80.43
2018-02-20T07:25:07.794Z,79.30
2018-02-20T07:27:36.118Z,77.83
2018-02-20T07:30:04.518Z,70.43
2018-02-20T07:32:32.830Z,74.33
2018-02-20T07:35:01.230Z,66.17
2018-02-20T07:37:29.577Z,75.97
2018-02-20T07:39:57.908Z,76.83
2018-02-20T07:42:26.261Z,74.60
2018-02-20T07:44:54.589Z,68.70
2018-02-20T07:47:22.959Z,73.63
2018-02-20T07:49:51.295Z,79.27
2018-02-20T07:52:19.706Z,71.10
2018-02-20T07:54:48.079Z,76.80
2018-02-20T07:57:16.455Z,85.83
2018-02-20T07:59:44.799Z,95.30
2018-02-20T08:02:13.122Z,85.80
2018-02-20T08:04:41.480Z,98.30
2018-02-20T08:07:09.804Z,84.40
2018-02-20T08:09:38.162Z,79.00
2018-02-20T08:12:06.520Z,82.87
2018-02-20T08:14:34.886Z,71.53
2018-02-20T08:17:03.245Z,77.90
2018-02-20T08:19:31.608Z,77.57
2018-02-20T08:21:59.934Z,84.20
2018-02-20T08:24:28.277Z,87.40
2018-02-20T08:26:56.839Z,78.53
2018-02-20T08:29:25.186Z,67.33
2018-02-20T08:31:53.511Z,67.10
2018-02-20T08:34:21.905Z,74.50
2018-02-20T08:36:50.211Z,70.00
2018-02-20T08:39:18.544Z,70.93
2018-02-20T08:41:46.891Z,69.50
2018-02-20T08:44:15.239Z,62.43
2018-02-20T08:46:43.614Z,68.93
2018-02-20T08:49:11.992Z,69.07
2018-02-20T08:51:40.370Z,68.87
2018-02-20T08:54:08.772Z,74.00
2018-02-20T08:56:37.202Z,65.03
2018-02-20T08:59:05.565Z,79.27
2018-02-20T09:01:33.934Z,73.30
2018-02-20T09:04:02.329Z,68.07
2018-02-20T09:06:30.700Z,76.10
2018-02-20T09:08:59.061Z,83.90
2018-02-20T09:11:27.385Z,74.63
2018-02-20T09:13:55.731Z,81.17
2018-02-20T09:18:58.646Z,57.80
2018-02-20T09:21:27.028Z,59.40
2018-02-20T09:23:55.381Z,48.97
2018-02-20T09:26:23.696Z,44.53
2018-02-20T09:28:52.967Z,57.40
2018-02-20T09:31:21.399Z,56.27
2018-02-20T09:33:49.707Z,52.03
2018-02-20T09:36:18.041Z,54.53
2018-02-20T09:38:46.431Z,57.37
2018-02-20T09:41:14.755Z,59.93
2018-02-20T09:43:43.085Z,62.33
2018-02-20T09:46:11.418Z,65.40
2018-02-20T09:48:39.746Z,68.23
2018-02-20T09:51:08.212Z,65.73
2018-02-20T09:53:36.522Z,71.07
2018-02-20T09:56:04.870Z,67.60
2018-02-20T09:58:33.200Z,71.47
2018-02-20T10:01:02.248Z,73.40
2018-02-20T10:03:30.570Z,72.60
2018-02-20T10:05:58.919Z,76.70
2018-02-20T10:08:27.235Z,76.67
2018-02-20T10:10:55.613Z,76.57
2018-02-20T10:13:23.919Z,65.83
2018-02-20T10:15:52.255Z,62.37
2018-02-20T10:18:20.659Z,71.07
2018-02-20T10:20:49.001Z,77.53
2018-02-20T10:23:17.348Z,71.53
2018-02-20T10:25:45.983Z,68.30
2018-02-20T10:28:14.310Z,65.43
2018-02-20T10:30:42.740Z,73.60
2018-02-20T10:33:11.092Z,68.40
2018-02-20T10:35:39.414Z,64.70
2018-02-20T10:38:07.758Z,73.43
2018-02-20T10:40:37.112Z,66.37
2018-02-20T10:43:05.484Z,66.43
2018-02-20T10:45:33.839Z,47.60
2018-02-20T10:48:02.205Z,50.40
2018-02-20T10:50:30.729Z,60.37
2018-02-20T10:52:59.093Z,55.50
2018-02-20T10:55:27.440Z,67.40
2018-02-20T10:57:55.807Z,62.10
2018-02-20T11:00:24.159Z,61.97
2018-02-20T11:02:52.617Z,45.77
2018-02-20T11:05:20.978Z,51.27
2018-02-20T11:07:49.766Z,48.40
2018-02-20T11:10:18.874Z,43.60
2018-02-20T11:12:47.210Z,37.43
2018-02-20T11:15:15.570Z,46.03
2018-02-20T11:17:43.908Z,45.13
2018-02-20T11:20:12.294Z,52.30
2018-02-20T11:22:40.631Z,42.47
2018-02-20T11:25:09.038Z,50.13
2018-02-20T11:27:37.379Z,52.43
2018-02-20T11:30:05.714Z,52.33
2018-02-20T11:32:34.173Z,59.43
2018-02-20T11:35:02.520Z,55.20
2018-02-20T11:37:30.883Z,50.97
2018-02-20T11:39:59.222Z,40.77
2018-02-20T11:42:27.582Z,49.47
2018-02-20T11:44:55.918Z,49.63
2018-02-20T11:47:24.323Z,51.90
2018-02-20T11:49:52.650Z,47.37
2018-02-20T11:52:21.010Z,49.77
2018-02-20T11:54:49.350Z,55.00
2018-02-20T11:57:17.718Z,52.17
2018-02-20T11:59:47.067Z,46.70
2018-02-20T12:02:15.398Z,51.60
2018-02-20T12:04:43.772Z,52.53
2018-02-20T12:07:12.120Z,56.67
2018-02-20T12:09:41.904Z,66.50
2018-02-20T12:12:10.262Z,54.00
2018-02-20T12:14:38.638Z,64.87
2018-02-20T12:17:06.989Z,64.27
2018-02-20T12:19:35.355Z,59.77
2018-02-20T12:22:04.674Z,54.33
2018-02-20T12:24:33.039Z,61.57
2018-02-20T12:27:01.380Z,52.50
2018-02-20T12:29:29.715Z,58.07
2018-02-20T12:31:58.107Z,49.80
2018-02-20T12:34:27.179Z,50.17
2018-02-20T12:36:55.535Z,52.73
2018-02-20T12:39:23.860Z,51.43
2018-02-20T12:41:52.228Z,53.77
2018-02-20T12:44:20.563Z,52.77
2018-02-20T12:46:49.011Z,54.03
2018-02-20T12:49:17.396Z,49.43
2018-02-20T12:51:45.962Z,57.40
2018-02-20T12:54:14.360Z,54.33
2018-02-20T12:56:42.696Z,52.80
2018-02-20T12:59:11.794Z,59.97
2018-02-20T13:01:40.118Z,52.33
2018-02-20T13:04:08.582Z,51.30
2018-02-20T13:06:36.927Z,48.53
2018-02-20T13:09:05.296Z,45.10
2018-02-20T13:11:33.635Z,50.70
2018-02-20T13:14:01.996Z,46.03
2018-02-20T13:16:30.332Z,43.10
2018-02-20T13:18:58.685Z,42.67
2018-02-20T13:21:27.035Z,39.10
2018-02-20T13:23:55.391Z,38.00
2018-02-20T13:26:23.744Z,36.80
2018-02-20T13:28:52.096Z,31.80
2018-02-20T13:31:20.447Z,29.07
2018-02-20T13:33:48.832Z,37.73
2018-02-20T13:36:17.208Z,29.00
2018-02-20T13:38:46.549Z,31.80
2018-02-20T13:41:14.918Z,28.37
2018-02-20T13:43:43.257Z,35.53
2018-02-20T13:46:11.636Z,24.93
2018-02-20T13:48:40.023Z,32.30
2018-02-20T13:51:09.614Z,30.60
2018-02-20T13:53:37.956Z,40.13
2018-02-20T13:56:06.366Z,31.27
2018-02-20T13:58:34.732Z,45.77
2018-02-20T14:01:03.075Z,39.60
2018-02-20T14:03:31.437Z,44.90
2018-02-20T14:05:59.779Z,45.73
2018-02-20T14:08:28.139Z,48.97
2018-02-20T14:10:56.479Z,39.57
2018-02-20T14:13:24.892Z,45.67
2018-02-20T14:15:53.207Z,44.37
2018-02-20T14:18:21.583Z,43.13
2018-02-20T14:20:49.922Z,44.53
2018-02-20T14:23:18.262Z,49.00
2018-02-20T14:25:46.634Z,48.13
2018-02-20T14:28:15.082Z,46.03
2018-02-20T14:30:43.499Z,46.07
2018-02-20T14:33:11.866Z,41.73
2018-02-20T14:35:40.222Z,49.03
2018-02-20T14:38:08.580Z,46.57
2018-02-20T14:40:37.117Z,42.97
2018-02-20T14:43:05.490Z,48.43
2018-02-20T14:45:33.844Z,43.30
2018-02-20T14:48:02.207Z,49.97
2018-02-20T14:50:30.600Z,47.47
2018-02-20T14:52:58.969Z,47.33
2018-02-20T14:55:27.311Z,50.03
2018-02-20T14:57:57.055Z,52.43
2018-02-20T15:00:25.449Z,53.30
2018-02-20T15:02:53.931Z,47.37
2018-02-20T15:05:22.415Z,56.70
2018-02-20T15:07:50.779Z,54.10
2018-02-20T15:10:19.130Z,53.47
2018-02-20T15:12:47.494Z,50.90
2018-02-20T15:15:15.839Z,57.00
2018-02-20T15:17:44.236Z,59.83
2018-02-20T15:20:12.698Z,69.00
2018-02-20T15:22:41.119Z,57.10
2018-02-20T15:25:09.496Z,54.97
2018-02-20T15:27:37.848Z,51.67
2018-02-20T15:30:06.214Z,51.47
2018-02-20T15:32:34.581Z,66.60
2018-02-20T15:35:02.942Z,63.80
2018-02-20T15:37:31.324Z,69.67
2018-02-20T15:39:59.812Z,70.07
2018-02-20T15:42:28.151Z,73.53
2018-02-20T15:44:56.569Z,76.10
2018-02-20T15:47:24.911Z,72.80
2018-02-20T15:49:53.273Z,73.93
2018-02-20T15:52:21.645Z,67.27
2018-02-20T15:54:49.995Z,83.17
2018-02-20T15:57:18.411Z,78.10
2018-02-20T15:59:46.839Z,69.97
2018-02-20T16:02:15.251Z,70.50
2018-02-20T16:04:43.602Z,72.50
2018-02-20T16:07:11.971Z,80.97
2018-02-20T16:09:40.316Z,85.83
2018-02-20T16:12:08.710Z,72.87
2018-02-20T16:14:37.066Z,81.33
2018-02-20T16:17:05.461Z,75.83
2018-02-20T16:19:33.817Z,74.63
2018-02-20T16:22:02.171Z,90.13
2018-02-20T16:24:30.548Z,79.87
2018-02-20T16:26:58.902Z,72.30
2018-02-20T16:29:27.316Z,73.73
2018-02-20T16:31:55.651Z,66.87
2018-02-20T16:34:24.036Z,72.53
2018-02-20T16:36:52.422Z,72.30
2018-02-20T16:39:20.878Z,66.00
2018-02-20T16:41:49.227Z,72.93
2018-02-20T16:44:17.642Z,82.60
2018-02-20T16:46:46.028Z,72.40
2018-02-20T16:49:14.421Z,75.17
2018-02-20T16:51:42.793Z,76.87
2018-02-20T16:54:11.155Z,71.40
2018-02-20T16:56:39.537Z,63.87
2018-02-20T16:59:07.941Z,54.67
2018-02-20T17:01:36.403Z,59.47
2018-02-20T17:04:04.753Z,59.07
2018-02-20T17:06:33.139Z,52.07
2018-02-20T17:09:01.518Z,46.40
2018-02-20T17:11:29.959Z,60.93
2018-02-20T17:13:58.320Z,55.03
2018-02-20T17:16:26.686Z,53.20
2018-02-20T17:18:55.070Z,55.70
2018-02-20T17:21:23.432Z,53.90
2018-02-20T17:23:51.808Z,55.33
2018-02-20T17:26:20.170Z,61.10
2018-02-20T17:28:48.551Z,62.83
2018-02-20T17:31:16.936Z,61.83
2018-02-20T17:33:45.299Z,73.07
2018-02-20T17:36:13.663Z,67.17
2018-02-20T17:38:42.003Z,70.70
2018-02-20T17:41:10.385Z,76.10
2018-02-20T17:43:38.727Z,86.93
2018-02-20T17:46:07.075Z,83.87
2018-02-20T17:48:35.469Z,86.57
2018-02-20T17:51:03.829Z,83.63
2018-02-20T17:53:32.180Z,92.87
2018-02-20T17:56:00.546Z,89.17
2018-02-20T17:58:28.900Z,82.10
2018-02-20T18:00:57.249Z,97.07
2018-02-20T18:03:25.642Z,93.50
2018-02-20T18:05:53.996Z,85.00
2018-02-20T18:08:22.341Z,80.10
2018-02-20T18:10:50.709Z,90.03
2018-02-20T18:13:19.069Z,83.97
2018-02-20T18:15:47.421Z,77.70
2018-02-20T18:18:15.787Z,78.00
2018-02-20T18:20:44.137Z,87.07
2018-02-20T18:23:12.479Z,90.47
2018-02-20T18:25:40.848Z,84.33
2018-02-20T18:28:09.215Z,66.37
2018-02-20T18:30:37.570Z,74.77
2018-02-20T18:33:05.992Z,77.67
2018-02-20T18:35:34.343Z,67.60
2018-02-20T18:38:02.722Z,74.40
2018-02-20T18:40:31.086Z,65.43
2018-02-20T18:42:59.433Z,59.60
2018-02-20T18:45:27.795Z,75.63
2018-02-20T18:47:56.227Z,73.13
2018-02-20T18:50:24.645Z,77.80
2018-02-20T18:52:52.995Z,75.10
2018-02-20T18:55:21.399Z,68.33
2018-02-20T18:57:49.742Z,70.37
2018-02-20T19:00:18.089Z,72.30
2018-02-20T19:02:46.473Z,70.60
2018-02-20T19:05:14.820Z,74.47
2018-02-20T19:07:43.192Z,70.97
2018-02-20T19:10:11.554Z,72.73
2018-02-20T19:12:39.913Z,89.40
2018-02-20T19:15:08.274Z,73.20
2018-02-20T19:17:36.621Z,85.33
2018-02-20T19:20:05.072Z,91.77
2018-02-20T19:22:33.434Z,83.73
2018-02-20T19:25:01.818Z,75.00
2018-02-20T19:27:30.216Z,81.60
2018-02-20T19:29:58.594Z,84.00
2018-02-20T19:32:26.949Z,74.73
2018-02-20T19:34:55.349Z,80.07
2018-02-20T19:37:23.707Z,82.37
2018-02-20T19:39:52.091Z,87.57
2018-02-20T19:42:20.438Z,73.03
2018-02-20T19:44:48.819Z,81.10
2018-02-20T19:47:17.174Z,65.63
2018-02-20T19:49:45.517Z,74.00
2018-02-20T19:52:13.899Z,80.60
2018-02-20T19:54:42.263Z,86.63
2018-02-20T19:57:10.612Z,82.20
2018-02-20T19:59:38.976Z,78.70
2018-02-20T20:02:07.320Z,85.70
2018-02-20T20:04:35.678Z,79.43
2018-02-20T20:07:04.032Z,73.70
2018-02-20T20:09:32.382Z,79.87
2018-02-20T20:12:00.733Z,78.53
2018-02-20T20:14:29.182Z,73.40
2018-02-20T20:16:57.534Z,78.43
2018-02-20T20:19:25.887Z,71.53
2018-02-20T20:21:54.331Z,75.43
2018-02-20T20:24:22.679Z,83.70
2018-02-20T20:26:51.039Z,74.80
2018-02-20T20:29:19.391Z,77.83
2018-02-20T20:31:47.846Z,78.50
2018-02-20T20:34:16.189Z,85.90
2018-02-20T20:36:44.546Z,80.57
2018-02-20T20:39:12.895Z,81.80
2018-02-20T20:41:41.274Z,82.37
2018-02-20T20:44:09.650Z,87.00
2018-02-20T20:46:38.014Z,83.67
2018-02-20T20:49:06.374Z,88.03
2018-02-20T20:51:34.745Z,77.30
2018-02-20T20:54:03.108Z,78.27
2018-02-20T20:56:31.460Z,88.67
2018-02-20T20:58:59.816Z,93.73
2018-02-20T21:01:28.185Z,91.20
2018-02-20T21:03:56.546Z,90.03
2018-02-20T21:06:24.910Z,93.87
2018-02-20T21:08:53.274Z,93.10
2018-02-20T21:11:21.648Z,103.30
2018-02-20T21:13:50.059Z,113.70
2018-02-20T21:16:18.457Z,88.70
2018-02-20T21:18:46.832Z,90.20
2018-02-20T21:21:15.188Z,85.37
2018-02-20T21:23:43.561Z,86.50
2018-02-20T21:26:11.912Z,80.17
2018-02-20T21:28:40.276Z,94.90
2018-02-20T21:31:08.746Z,82.57
2018-02-20T21:33:37.114Z,92.20
2018-02-20T21:36:05.583Z,92.43
2018-02-20T21:38:33.955Z,88.63
2018-02-20T21:41:02.319Z,96.87
2018-02-20T21:43:30.818Z,86.17
2018-02-20T21:45:59.210Z,92.57
2018-02-20T21:48:27.564Z,81.80
2018-02-20T21:50:55.922Z,96.77
2018-02-20T21:53:24.318Z,97.93
2018-02-20T21:55:52.671Z,104.67
2018-02-20T21:58:21.051Z,85.47
2018-02-20T22:00:49.415Z,88.93
2018-02-20T22:03:17.780Z,104.73
2018-02-20T22:05:46.143Z,99.17
2018-02-20T22:08:14.508Z,94.30
2018-02-20T22:10:42.861Z,103.47
2018-02-20T22:13:11.230Z,94.90
2018-02-20T22:15:39.576Z,88.67
2018-02-20T22:18:08.041Z,91.03
2018-02-20T22:20:36.395Z,101.10
2018-02-20T22:23:04.759Z,109.07
2018-02-20T22:25:33.141Z,95.60
2018-02-20T22:28:01.511Z,101.83
2018-02-20T22:30:29.867Z,101.10
2018-02-20T22:32:58.258Z,96.60
2018-02-20T22:35:26.607Z,88.10
2018-02-20T22:37:54.978Z,86.50
2018-02-20T22:40:23.421Z,94.93
2018-02-20T22:42:51.778Z,84.27
2018-02-20T22:45:20.135Z,90.07
2018-02-20T22:47:48.535Z,82.27
2018-02-20T22:50:16.885Z,84.00
2018-02-20T22:52:45.258Z,72.43
2018-02-20T22:55:13.608Z,79.60
2018-02-20T22:57:41.963Z,77.13
2018-02-20T23:00:10.315Z,77.83
2018-02-20T23:02:38.687Z,84.00
2018-02-20T23:05:07.023Z,86.83
2018-02-20T23:07:35.877Z,85.73
2018-02-20T23:10:04.225Z,80.57
2018-02-20T23:12:32.571Z,86.23
2018-02-20T23:15:00.950Z,81.50
2018-02-20T23:17:29.306Z,84.70
2018-02-20T23:19:57.770Z,90.13
2018-02-20T23:22:26.115Z,83.70
2018-02-20T23:24:54.482Z,82.30
2018-02-20T23:27:22.843Z,128.07
2018-02-20T23:29:51.210Z,89.23
2018-02-20T23:32:19.590Z,83.47
2018-02-20T23:34:47.930Z,83.13
2018-02-20T23:37:16.833Z,86.27
2018-02-20T23:39:45.186Z,91.80
2018-02-20T23:42:13.570Z,98.87
2018-02-20T23:44:43.874Z,90.67
2018-02-20T23:47:12.294Z,87.67
2018-02-20T23:49:40.647Z,88.63
2018-02-20T23:52:09.028Z,89.97
2018-02-20T23:54:37.422Z,84.97
2018-02-20T23:57:05.808Z,83.10
2018-02-20T23:59:34.176Z,79.90
